Montrose, CO

4:44 PM MDT on July 31, 2015 (GMT -0600)
Montrose Regional | | Change Station
CLOSE
Current Station
Airport
Location: Montrose,
Elevation: 5758 ft
Nearby Weather Stations

Elev 5758 ft 38.51 °N, 107.90 °W | Updated 51 minutes ago

Clear
Clear
87 °F
Feels Like 87 °F
N
7
Wind Variable Wind from West

Today
High -- | Low -- °F
--% Chance of Precip.
Yesterday
High -- | Low -- °F
Precip. -- in
6:12 AM 8:22 PM
Full, 100% visible
Pressure 29.97 in
Visibility 10.0 miles
Clouds Clear
Dew Point 38 °F
Humidity 18%
Rainfall 0.00 in
Snow Depth Not available.
UV 8 out of 12
Pollen 6.40 out of 12
Air Quality Not available.
Flu Activity Not available.
METAR KMTJ 312153Z AUTO 28006KT 10SM CLR 31/03 A3024 RMK AO2 LTG DSNT SW SLP149 T03060033

More Conditions Fewer Conditions

Pressure 29.97 in
Visibility 10.0 miles
Clouds Clear
Dew Point 38 °F
Humidity 18%
Rainfall 0.00 in
Snow Depth Not available.
UV 8 out of 12
Pollen 6.40 out of 12
Air Quality Not available.
Flu Activity Not available.
METAR KMTJ 312153Z AUTO 28006KT 10SM CLR 31/03 A3024 RMK AO2 LTG DSNT SW SLP149 T03060033

More Conditions Fewer Conditions

10-Day Weather Forecast

×

Almanac

Astronomy

Jul. 31, 2015 Rise Set
Actual Time
Civil Twilight
Nautical Twilight
Astronomical Twilight
Moon
Length of Visible Light
Length of Day
Tomorrow will be .
, % of the Moon is Illuminated

Today's Extremes

State Highs State Lows

Community

WunderPhotos

Upload Photos

1,842,764 photos uploaded!

WunderBlogs® & News

Nearby

Air Quality

  Air Quality AQ Index Pollutant
Not available.

Snow Depth

Station Depth Elevation

Earthquake Activity

City Distance Mag. Time & Date
Minimum magnitude displayed is 2.5.

Coastal Water Temperatures

Place Temperature

Stations

Nearby Weather Stations

Station Location Temp. Windchill Dew Point Humidity Wind Precip. Elev Updated Type